createdAt,value
2022-12-05T00:00:22.040Z,3.50
2022-12-05T00:02:50.956Z,3.50
2022-12-05T00:05:20.120Z,3.50
2022-12-05T00:07:50.626Z,3.50
2022-12-05T00:10:19.664Z,3.50
2022-12-05T00:12:48.626Z,3.50
2022-12-05T00:15:17.770Z,3.50
2022-12-05T00:17:46.854Z,3.50
2022-12-05T00:20:15.844Z,3.50
2022-12-05T00:22:44.768Z,3.40
2022-12-05T00:25:14.879Z,3.50
2022-12-05T00:27:43.669Z,3.50
2022-12-05T00:30:12.890Z,3.40
2022-12-05T00:32:41.940Z,3.50
2022-12-05T00:35:11.020Z,3.40
2022-12-05T00:37:39.919Z,3.40
2022-12-05T00:40:10.637Z,3.40
2022-12-05T00:42:40.849Z,3.40
2022-12-05T00:45:10.851Z,3.40
2022-12-05T00:47:39.908Z,3.50
2022-12-05T00:50:09.944Z,3.40
2022-12-05T00:52:38.715Z,3.50
2022-12-05T00:55:08.158Z,3.40
2022-12-05T00:57:36.955Z,3.50
2022-12-05T01:00:09.045Z,3.50
2022-12-05T01:02:37.957Z,3.50
2022-12-05T01:05:09.440Z,3.50
2022-12-05T01:07:38.476Z,3.50
2022-12-05T01:10:08.662Z,3.50
2022-12-05T01:12:37.466Z,3.40
2022-12-05T01:15:09.322Z,3.40
2022-12-05T01:17:38.158Z,3.40
2022-12-05T01:20:08.632Z,3.40
2022-12-05T01:22:37.446Z,3.40
2022-12-05T01:25:07.173Z,3.40
2022-12-05T01:27:36.327Z,3.40
2022-12-05T01:30:07.984Z,3.50
2022-12-05T01:32:37.280Z,3.40
2022-12-05T01:35:07.019Z,3.40
2022-12-05T01:37:36.019Z,3.50
2022-12-05T01:40:05.671Z,3.40
2022-12-05T01:42:34.931Z,3.50
2022-12-05T01:45:14.038Z,3.50
2022-12-05T01:47:43.733Z,3.50
2022-12-05T01:50:13.597Z,3.40
2022-12-05T01:52:42.389Z,3.50
2022-12-05T01:55:15.980Z,3.50
2022-12-05T01:57:47.105Z,3.50
2022-12-05T02:00:20.747Z,3.50
2022-12-05T02:02:53.120Z,3.50
2022-12-05T02:05:24.927Z,3.50
2022-12-05T02:07:53.877Z,3.50
2022-12-05T02:10:23.122Z,3.50
2022-12-05T02:12:52.266Z,3.60
2022-12-05T02:15:38.171Z,3.60
2022-12-05T02:18:21.737Z,3.60
2022-12-05T02:21:04.537Z,3.70
2022-12-05T02:24:30.800Z,3.70
2022-12-05T02:27:15.095Z,3.70
2022-12-05T02:30:01.502Z,3.70
2022-12-05T02:32:39.448Z,3.70
2022-12-05T02:35:19.316Z,3.70
2022-12-05T02:37:53.682Z,3.70
2022-12-05T02:40:27.912Z,3.70
2022-12-05T02:43:01.160Z,3.80
2022-12-05T02:45:35.482Z,3.80
2022-12-05T02:48:05.261Z,3.80
2022-12-05T02:50:36.721Z,3.80
2022-12-05T02:53:09.927Z,3.80
2022-12-05T02:55:41.730Z,3.80
2022-12-05T02:58:15.972Z,3.80
2022-12-05T03:00:48.720Z,3.80
2022-12-05T03:03:20.694Z,3.80
2022-12-05T03:05:56.384Z,3.80
2022-12-05T03:08:28.853Z,3.80
2022-12-05T03:10:59.966Z,3.80
2022-12-05T03:13:31.092Z,3.80
2022-12-05T03:16:06.736Z,3.80
2022-12-05T03:18:40.663Z,3.80
2022-12-05T03:21:19.808Z,3.90
2022-12-05T03:23:52.652Z,3.80
2022-12-05T03:26:37.624Z,3.90
2022-12-05T03:29:18.159Z,3.90
2022-12-05T03:31:57.425Z,3.90
2022-12-05T03:34:38.204Z,3.90
2022-12-05T03:37:14.833Z,3.90
2022-12-05T03:39:49.362Z,3.90
2022-12-05T03:42:33.015Z,3.90
2022-12-05T03:45:07.702Z,3.90
2022-12-05T03:47:46.163Z,3.90
2022-12-05T03:50:22.112Z,4.00
2022-12-05T03:53:19.216Z,3.90
2022-12-05T03:55:47.820Z,3.90
2022-12-05T03:58:21.727Z,3.90
2022-12-05T04:00:54.355Z,3.90
2022-12-05T04:03:39.333Z,3.90
2022-12-05T04:06:16.051Z,4.00
2022-12-05T04:08:49.549Z,3.90
2022-12-05T04:11:23.606Z,4.00
2022-12-05T04:13:55.743Z,3.90
2022-12-05T04:16:44.955Z,4.00
2022-12-05T04:19:20.837Z,4.00
2022-12-05T04:21:52.504Z,4.00
2022-12-05T04:24:42.400Z,4.00
2022-12-05T04:27:22.621Z,4.00
2022-12-05T04:29:58.348Z,4.00
2022-12-05T04:32:30.340Z,4.00
2022-12-05T04:35:06.963Z,4.00
2022-12-05T04:37:41.162Z,4.00
2022-12-05T04:40:16.267Z,4.00
2022-12-05T04:42:47.199Z,4.00
2022-12-05T04:45:19.954Z,4.00
2022-12-05T04:47:52.654Z,4.10
2022-12-05T04:50:24.454Z,4.00
2022-12-05T04:52:56.319Z,4.00
2022-12-05T04:55:28.163Z,4.10
2022-12-05T04:58:04.814Z,4.10
2022-12-05T05:00:39.334Z,4.10
2022-12-05T05:03:13.436Z,4.10
2022-12-05T05:05:48.458Z,4.10
2022-12-05T05:08:23.826Z,4.10
2022-12-05T05:11:05.572Z,4.10
2022-12-05T05:13:34.253Z,4.10
2022-12-05T05:16:02.959Z,4.10
2022-12-05T05:18:31.846Z,4.10
2022-12-05T05:21:02.111Z,4.10
2022-12-05T05:23:31.139Z,4.10
2022-12-05T05:26:00.241Z,4.10
2022-12-05T05:28:29.534Z,4.10
2022-12-05T05:31:04.571Z,4.10
2022-12-05T05:33:33.624Z,4.20
2022-12-05T05:36:06.577Z,4.20
2022-12-05T05:38:38.083Z,4.20
2022-12-05T05:41:07.380Z,4.20
2022-12-05T05:43:36.124Z,4.20
2022-12-05T05:46:05.253Z,4.20
2022-12-05T05:48:34.136Z,4.20
2022-12-05T05:51:05.296Z,4.20
2022-12-05T05:53:34.573Z,4.20
2022-12-05T05:56:05.048Z,4.30
2022-12-05T05:58:34.376Z,4.20
2022-12-05T06:01:05.391Z,4.30
2022-12-05T06:03:34.882Z,4.30
2022-12-05T06:06:07.926Z,4.30
2022-12-05T06:08:39.976Z,4.30
2022-12-05T06:11:09.757Z,4.30
2022-12-05T06:13:38.685Z,4.30
2022-12-05T06:16:08.894Z,4.30
2022-12-05T06:18:38.008Z,4.30
2022-12-05T06:21:13.161Z,4.30
2022-12-05T06:23:45.210Z,4.30
2022-12-05T06:26:18.899Z,4.30
2022-12-05T06:28:50.742Z,4.30
2022-12-05T06:31:22.291Z,4.30
2022-12-05T06:33:51.323Z,4.40
2022-12-05T06:36:23.075Z,4.40
2022-12-05T06:38:51.836Z,4.40
2022-12-05T06:41:22.029Z,4.40
2022-12-05T06:43:50.793Z,4.40
2022-12-05T06:46:19.755Z,4.40
2022-12-05T06:48:48.546Z,4.40
2022-12-05T06:51:18.239Z,4.40
2022-12-05T06:53:48.620Z,4.50
2022-12-05T06:56:19.734Z,4.40
2022-12-05T06:58:52.650Z,4.40
2022-12-05T07:01:42.537Z,4.50
2022-12-05T07:04:20.381Z,4.50
2022-12-05T07:06:51.215Z,4.50
2022-12-05T07:09:44.896Z,4.50
2022-12-05T07:12:14.725Z,4.60
2022-12-05T07:14:48.724Z,4.60
2022-12-05T07:17:18.492Z,4.60
2022-12-05T07:19:49.595Z,4.60
2022-12-05T07:22:18.482Z,4.60
2022-12-05T07:24:49.048Z,4.60
2022-12-05T07:27:21.825Z,4.60
2022-12-05T07:29:52.912Z,4.70
2022-12-05T07:32:21.775Z,4.70
2022-12-05T07:34:54.914Z,4.70
2022-12-05T07:37:24.957Z,4.70
2022-12-05T07:39:55.713Z,4.70
2022-12-05T07:42:24.997Z,4.70
2022-12-05T07:44:53.829Z,4.70
2022-12-05T07:47:22.827Z,4.70
2022-12-05T07:49:51.639Z,4.70
2022-12-05T07:52:20.368Z,4.80
2022-12-05T07:54:49.183Z,4.80
2022-12-05T07:57:19.667Z,4.80
2022-12-05T07:59:48.742Z,4.80
2022-12-05T08:02:17.571Z,4.80
2022-12-05T08:04:46.513Z,4.80
2022-12-05T08:07:15.678Z,4.80
2022-12-05T08:09:44.592Z,4.80
2022-12-05T08:12:13.471Z,4.80
2022-12-05T08:14:43.746Z,4.80
2022-12-05T08:17:12.586Z,4.80
2022-12-05T08:19:41.446Z,4.80
2022-12-05T08:22:10.180Z,4.80
2022-12-05T08:24:39.306Z,4.80
2022-12-05T08:27:08.133Z,4.80
2022-12-05T08:29:36.803Z,4.90
2022-12-05T08:32:07.547Z,4.90
2022-12-05T08:34:36.348Z,4.90
2022-12-05T08:37:05.055Z,4.90
2022-12-05T08:39:38.446Z,4.90
2022-12-05T08:42:07.707Z,4.90
2022-12-05T08:44:36.420Z,4.90
2022-12-05T08:47:06.674Z,4.90
2022-12-05T08:49:35.451Z,4.90
2022-12-05T08:52:04.323Z,4.90
2022-12-05T08:54:32.995Z,5.00
2022-12-05T08:57:01.738Z,5.00
2022-12-05T08:59:30.604Z,5.00
2022-12-05T09:01:59.409Z,5.00
2022-12-05T09:04:29.544Z,5.00
2022-12-05T09:06:58.417Z,5.00
2022-12-05T09:09:27.916Z,5.00
2022-12-05T09:11:58.023Z,5.10
2022-12-05T09:14:32.714Z,5.10
2022-12-05T09:17:01.976Z,5.10
2022-12-05T09:19:32.039Z,5.10
2022-12-05T09:22:00.780Z,5.10
2022-12-05T09:24:29.478Z,5.10
2022-12-05T09:26:58.253Z,5.10
2022-12-05T09:29:29.537Z,5.10
2022-12-05T09:31:58.360Z,5.10
2022-12-05T09:34:27.133Z,5.10
2022-12-05T09:37:10.530Z,5.10
2022-12-05T09:39:47.081Z,5.20
2022-12-05T09:42:31.509Z,5.20
2022-12-05T09:45:24.377Z,5.20
2022-12-05T09:47:59.035Z,5.20
2022-12-05T09:50:30.319Z,5.20
2022-12-05T09:53:27.436Z,5.20
2022-12-05T09:56:02.168Z,5.20
2022-12-05T09:58:40.963Z,5.20
2022-12-05T10:01:27.957Z,5.20
2022-12-05T10:04:30.835Z,5.20
2022-12-05T10:07:08.371Z,5.20
2022-12-05T10:09:52.921Z,5.20
2022-12-05T10:12:37.143Z,5.20
2022-12-05T10:15:15.312Z,5.20
2022-12-05T10:17:48.774Z,5.20
2022-12-05T10:20:21.195Z,5.20
2022-12-05T10:22:54.055Z,5.20
2022-12-05T10:25:28.072Z,5.20
2022-12-05T10:27:59.710Z,5.20
2022-12-05T10:30:31.672Z,5.20
2022-12-05T10:33:06.425Z,5.20
2022-12-05T10:35:40.266Z,5.20
2022-12-05T10:38:14.727Z,5.20
2022-12-05T10:40:47.725Z,5.20
2022-12-05T10:43:21.872Z,5.20
2022-12-05T10:45:50.616Z,5.20
2022-12-05T10:48:21.129Z,5.30
2022-12-05T10:50:52.602Z,5.30
2022-12-05T10:53:25.728Z,5.30
2022-12-05T10:56:28.873Z,5.30
2022-12-05T10:58:57.423Z,5.30
2022-12-05T11:01:27.395Z,5.30
2022-12-05T11:04:27.803Z,5.20
2022-12-05T11:07:00.616Z,5.30
2022-12-05T11:09:31.698Z,5.30
2022-12-05T11:12:17.235Z,5.30
2022-12-05T11:14:57.293Z,5.30
2022-12-05T11:17:31.050Z,5.30
2022-12-05T11:20:00.442Z,5.40
2022-12-05T11:22:36.399Z,5.40
2022-12-05T11:25:26.931Z,5.40
2022-12-05T11:28:01.207Z,5.40
2022-12-05T11:30:31.253Z,5.40
2022-12-05T11:33:13.810Z,5.40
2022-12-05T11:35:42.561Z,5.40
2022-12-05T11:38:15.988Z,5.40
2022-12-05T11:40:54.857Z,5.40
2022-12-05T11:43:53.450Z,5.40
2022-12-05T11:49:38.673Z,5.40
2022-12-05T11:52:17.038Z,5.40
2022-12-05T11:55:06.130Z,5.30
2022-12-05T11:57:59.668Z,5.30
2022-12-05T12:00:39.383Z,5.30
2022-12-05T12:03:35.599Z,5.40
2022-12-05T12:06:21.255Z,5.40
2022-12-05T12:09:02.627Z,5.40
2022-12-05T12:11:37.728Z,5.30
2022-12-05T12:14:16.432Z,5.30
2022-12-05T12:16:53.632Z,5.40
2022-12-05T12:19:43.418Z,5.40
2022-12-05T12:22:37.387Z,5.40
2022-12-05T12:25:26.996Z,5.40
2022-12-05T12:28:07.588Z,5.40
2022-12-05T12:30:49.422Z,5.40
2022-12-05T12:33:31.525Z,5.40
2022-12-05T12:36:10.264Z,5.40
2022-12-05T12:38:57.935Z,5.40
2022-12-05T12:41:42.188Z,5.40
2022-12-05T12:44:40.401Z,5.40
2022-12-05T12:47:18.338Z,5.40
2022-12-05T12:50:02.521Z,5.40
2022-12-05T12:52:52.058Z,5.40
2022-12-05T12:55:25.783Z,5.40
2022-12-05T12:58:08.753Z,5.40
2022-12-05T13:00:54.331Z,5.40
2022-12-05T13:03:37.026Z,5.50
2022-12-05T13:06:14.859Z,5.40
2022-12-05T13:08:51.611Z,5.40
2022-12-05T13:11:23.303Z,5.40
2022-12-05T13:13:54.832Z,5.40
2022-12-05T13:16:27.343Z,5.40
2022-12-05T13:18:57.545Z,5.40
2022-12-05T13:21:31.017Z,5.40
2022-12-05T13:24:03.469Z,5.40
2022-12-05T13:26:34.509Z,5.40
2022-12-05T13:29:05.817Z,5.30
2022-12-05T13:31:40.037Z,5.30
2022-12-05T13:34:55.055Z,5.30
2022-12-05T13:37:44.729Z,5.30
2022-12-05T13:40:45.638Z,5.30
2022-12-05T13:43:18.140Z,5.30
2022-12-05T13:46:05.799Z,5.30
2022-12-05T13:48:36.889Z,5.30
2022-12-05T13:51:09.812Z,5.30
2022-12-05T13:53:43.353Z,5.30
2022-12-05T13:56:29.217Z,5.40
2022-12-05T13:58:58.788Z,5.30
2022-12-05T14:01:47.627Z,5.30
2022-12-05T14:04:42.249Z,5.30
2022-12-05T14:07:11.751Z,5.30
2022-12-05T14:09:57.454Z,5.30
2022-12-05T14:12:47.597Z,5.30
2022-12-05T14:15:33.114Z,5.30
2022-12-05T14:18:05.678Z,5.30
2022-12-05T14:20:54.623Z,5.30
2022-12-05T14:23:50.286Z,5.30
2022-12-05T14:26:42.598Z,5.30
2022-12-05T14:29:27.755Z,5.30
2022-12-05T14:32:10.181Z,5.20
2022-12-05T14:34:48.706Z,5.20
2022-12-05T14:37:28.483Z,5.20
2022-12-05T14:39:59.910Z,5.20
2022-12-05T14:42:37.485Z,5.20
2022-12-05T14:45:33.096Z,5.20
2022-12-05T14:48:04.603Z,5.20
2022-12-05T14:50:43.540Z,5.20
2022-12-05T14:53:35.046Z,5.20
2022-12-05T14:56:19.920Z,5.20
2022-12-05T14:58:56.876Z,5.20
2022-12-05T15:01:28.747Z,5.20
2022-12-05T15:04:20.923Z,5.20
2022-12-05T15:06:54.832Z,5.20
2022-12-05T15:09:51.161Z,5.20
2022-12-05T15:12:23.260Z,5.20
2022-12-05T15:15:02.674Z,5.20
2022-12-05T15:17:39.195Z,5.20
2022-12-05T15:20:18.283Z,5.20
2022-12-05T15:22:47.268Z,5.20
2022-12-05T15:25:30.968Z,5.20
2022-12-05T15:28:06.118Z,5.20
2022-12-05T15:30:40.871Z,5.20
2022-12-05T15:33:14.042Z,5.20
2022-12-05T15:35:47.907Z,5.20
2022-12-05T15:38:27.802Z,5.20
2022-12-05T15:40:56.897Z,5.20
2022-12-05T15:43:29.738Z,5.20
2022-12-05T15:46:24.502Z,5.20
2022-12-05T15:48:57.173Z,5.20
2022-12-05T15:51:33.483Z,5.20
2022-12-05T15:54:09.214Z,5.20
2022-12-05T15:56:43.190Z,5.20
2022-12-05T15:59:18.997Z,5.20
2022-12-05T16:01:52.746Z,5.20
2022-12-05T16:04:29.596Z,5.20
2022-12-05T16:07:05.250Z,5.20
2022-12-05T16:09:37.729Z,5.20
2022-12-05T16:12:16.838Z,5.20
2022-12-05T16:15:01.969Z,5.20
2022-12-05T16:17:41.350Z,5.20
2022-12-05T16:20:30.967Z,5.20
2022-12-05T16:23:04.624Z,5.20
2022-12-05T16:25:40.497Z,5.20
2022-12-05T16:28:22.909Z,5.20
2022-12-05T16:30:56.884Z,5.20
2022-12-05T16:33:29.396Z,5.20
2022-12-05T16:36:08.133Z,5.20
2022-12-05T16:38:37.829Z,5.20
2022-12-05T16:41:09.242Z,5.20
2022-12-05T16:43:49.769Z,5.20
2022-12-05T16:46:47.904Z,5.20
2022-12-05T16:49:42.691Z,5.20
2022-12-05T16:52:18.925Z,5.20
2022-12-05T16:54:50.636Z,5.20
2022-12-05T16:57:22.965Z,5.20
2022-12-05T16:59:51.890Z,5.20
2022-12-05T17:02:21.338Z,5.20
2022-12-05T17:04:53.815Z,5.20
2022-12-05T17:07:22.534Z,5.20
2022-12-05T17:09:54.205Z,5.20
2022-12-05T17:12:25.927Z,5.20
2022-12-05T17:14:54.869Z,5.20
2022-12-05T17:17:23.693Z,5.20
2022-12-05T17:19:54.456Z,5.20
2022-12-05T17:22:23.763Z,5.30
2022-12-05T17:24:52.505Z,5.20
2022-12-05T17:27:21.233Z,5.30
2022-12-05T17:29:50.203Z,5.30
2022-12-05T17:32:19.042Z,5.30
2022-12-05T17:34:47.916Z,5.30
2022-12-05T17:37:18.147Z,5.20
2022-12-05T17:39:47.138Z,5.30
2022-12-05T17:42:16.173Z,5.20
2022-12-05T17:44:45.470Z,5.20
2022-12-05T17:47:14.458Z,5.30
2022-12-05T17:49:43.258Z,5.20
2022-12-05T17:52:21.353Z,5.20
2022-12-05T17:54:52.259Z,5.20
2022-12-05T17:57:23.997Z,5.20
2022-12-05T17:59:53.215Z,5.20
2022-12-05T18:02:28.928Z,5.20
2022-12-05T18:04:58.127Z,5.20
2022-12-05T18:07:27.076Z,5.20
2022-12-05T18:09:57.801Z,5.20
2022-12-05T18:12:26.681Z,5.20
2022-12-05T18:14:55.959Z,5.30
2022-12-05T18:17:27.136Z,5.20
2022-12-05T18:19:56.477Z,5.30
2022-12-05T18:22:25.983Z,5.20
2022-12-05T18:24:57.428Z,5.30
2022-12-05T18:27:26.609Z,5.20
2022-12-05T18:29:55.217Z,5.20
2022-12-05T18:32:24.454Z,5.20
2022-12-05T18:34:53.349Z,5.20
2022-12-05T18:37:22.440Z,5.30
2022-12-05T18:39:51.064Z,5.30
2022-12-05T18:42:21.420Z,5.30
2022-12-05T18:44:52.858Z,5.30
2022-12-05T18:47:21.539Z,5.30
2022-12-05T18:49:50.609Z,5.30
2022-12-05T18:52:19.491Z,5.30
2022-12-05T18:55:03.016Z,5.30
2022-12-05T18:57:38.299Z,5.30
2022-12-05T19:00:08.610Z,5.30
2022-12-05T19:02:37.370Z,5.30
2022-12-05T19:05:06.642Z,5.30
2022-12-05T19:07:35.404Z,5.30
2022-12-05T19:10:04.280Z,5.30
2022-12-05T19:12:32.939Z,5.20
2022-12-05T19:15:03.089Z,5.30
2022-12-05T19:17:32.317Z,5.30
2022-12-05T19:20:01.292Z,5.30
2022-12-05T19:22:30.642Z,5.30
2022-12-05T19:24:59.625Z,5.30
2022-12-05T19:27:28.735Z,5.30
2022-12-05T19:29:57.560Z,5.30
2022-12-05T19:32:28.041Z,5.30
2022-12-05T19:34:57.228Z,5.30
2022-12-05T19:37:26.238Z,5.30
2022-12-05T19:39:54.913Z,5.20
2022-12-05T19:42:23.578Z,5.20
2022-12-05T19:44:52.302Z,5.20
2022-12-05T19:47:21.058Z,5.20
2022-12-05T19:49:51.594Z,5.20
2022-12-05T19:52:20.704Z,5.20
2022-12-05T19:54:49.449Z,5.20
2022-12-05T19:57:18.938Z,5.20
2022-12-05T19:59:51.667Z,5.20
2022-12-05T20:02:20.538Z,5.20
2022-12-05T20:04:50.907Z,5.20
2022-12-05T20:07:22.335Z,5.10
2022-12-05T20:09:51.095Z,5.10
2022-12-05T20:12:20.255Z,5.20
2022-12-05T20:14:48.976Z,5.20
2022-12-05T20:17:17.866Z,5.20
2022-12-05T20:19:46.571Z,5.10
2022-12-05T20:22:16.786Z,5.20
2022-12-05T20:24:45.408Z,5.20
2022-12-05T20:27:14.133Z,5.20
2022-12-05T20:29:42.878Z,5.20
2022-12-05T20:32:11.690Z,5.20
2022-12-05T20:34:40.336Z,5.20
2022-12-05T20:37:09.117Z,5.20
2022-12-05T20:39:39.822Z,5.20
2022-12-05T20:42:08.497Z,5.10
2022-12-05T20:44:37.413Z,5.10
2022-12-05T20:47:06.330Z,5.10
2022-12-05T20:49:35.147Z,5.20
2022-12-05T20:52:03.774Z,5.10
2022-12-05T20:54:32.512Z,5.10
2022-12-05T20:57:03.133Z,5.10
2022-12-05T20:59:31.861Z,5.10
2022-12-05T21:02:00.647Z,5.10
2022-12-05T21:04:41.129Z,5.10
2022-12-05T21:07:10.019Z,5.10
2022-12-05T21:09:38.819Z,5.10
2022-12-05T21:12:09.023Z,5.10
2022-12-05T21:14:37.828Z,5.10
2022-12-05T21:17:06.511Z,5.10
2022-12-05T21:19:40.617Z,5.00
2022-12-05T21:22:09.408Z,5.00
2022-12-05T21:24:38.117Z,5.00
2022-12-05T21:27:08.487Z,5.00
2022-12-05T21:29:40.227Z,5.10
2022-12-05T21:32:09.806Z,5.00
2022-12-05T21:34:43.164Z,5.00
2022-12-05T21:37:11.836Z,5.00
2022-12-05T21:39:40.650Z,5.00
2022-12-05T21:42:10.853Z,5.00
2022-12-05T21:44:39.805Z,5.00
2022-12-05T21:47:09.200Z,5.00
2022-12-05T21:49:37.954Z,5.00
2022-12-05T21:52:06.806Z,5.00
2022-12-05T21:54:35.475Z,5.00
2022-12-05T21:57:04.320Z,5.10
2022-12-05T21:59:37.350Z,5.10
2022-12-05T22:02:06.067Z,5.00
2022-12-05T22:04:34.839Z,5.10
2022-12-05T22:07:03.516Z,5.10
2022-12-05T22:09:32.425Z,5.10
2022-12-05T22:12:03.980Z,5.10
2022-12-05T22:14:34.094Z,5.10
2022-12-05T22:17:02.816Z,5.10
2022-12-05T22:19:31.538Z,5.10
2022-12-05T22:22:00.383Z,5.10
2022-12-05T22:24:31.480Z,5.10
2022-12-05T22:27:00.402Z,5.10
2022-12-05T22:29:30.242Z,5.20
2022-12-05T22:32:00.397Z,5.10
2022-12-05T22:34:30.715Z,5.20
2022-12-05T22:36:59.922Z,5.20
2022-12-05T22:39:28.641Z,5.10
2022-12-05T22:42:00.535Z,5.20
2022-12-05T22:44:29.551Z,5.10
2022-12-05T22:46:59.845Z,5.10
2022-12-05T22:49:28.737Z,5.10
2022-12-05T22:51:57.422Z,5.10
2022-12-05T22:54:30.224Z,5.10
2022-12-05T22:56:59.148Z,5.10
2022-12-05T22:59:28.038Z,5.10
2022-12-05T23:01:56.995Z,5.10
2022-12-05T23:04:27.800Z,5.10
2022-12-05T23:06:56.907Z,5.10
2022-12-05T23:09:27.382Z,5.20
2022-12-05T23:11:56.374Z,5.10
2022-12-05T23:14:25.819Z,5.20
2022-12-05T23:16:54.878Z,5.20
2022-12-05T23:19:27.114Z,5.20
2022-12-05T23:21:57.603Z,5.20
2022-12-05T23:24:29.019Z,5.20
2022-12-05T23:26:57.957Z,5.20
2022-12-05T23:29:29.945Z,5.20
2022-12-05T23:31:59.125Z,5.20
2022-12-05T23:34:28.236Z,5.20
2022-12-05T23:36:58.800Z,5.20
2022-12-05T23:39:28.930Z,5.20
2022-12-05T23:41:58.712Z,5.20
2022-12-05T23:44:27.713Z,5.20
2022-12-05T23:46:56.783Z,5.20
2022-12-05T23:49:28.603Z,5.20
2022-12-05T23:52:01.212Z,5.20
2022-12-05T23:54:30.489Z,5.20
2022-12-05T23:56:59.493Z,5.20
2022-12-05T23:59:28.495Z,5.20
